Strasburg, OH (44680)

11:42 AM EDT on September 04, 2015 (GMT -0400)
GET | | Change Station
CLOSE
Current Station
Personal Weather Station
Location: Strasburg, OH
Elevation: 980 ft
Nearby Weather Stations

Elev 980 ft 40.63 °N, 81.53 °W | Updated 2 minutes ago

Rain
Rain
66.9 °F
Feels Like 66.9 °F
N
1.0
Wind Variable Wind from SSW
Gusts 1.0 mph

Today
High -- | Low -- °F
--% Chance of Precip.
Yesterday
High -- | Low -- °F
Precip. -- in
6:55 AM 7:53 PM
Waning Gibbous, 58% visible
Pressure 30.12 in
Visibility 2.0 miles
Clouds Mostly Cloudy 5000 ft
Mostly Cloudy 7000 ft
Overcast 9500 ft
Dew Point 67 °F
Humidity 100%
Rainfall 0.77 in
Snow Depth Not available.
UV 2 out of 12
Pollen 9.20 out of 12
Air Quality Not available.
Flu Activity Not available.
SPECI KPHD 041539Z AUTO 00000KT 2SM -RA BR BKN050 BKN070 OVC095 20/19 A3012 RMK AO2 TSB24E39 T02000194 PNO
Pressure 30.12 in
Visibility 2.0 miles
Clouds Mostly Cloudy 5000 ft
Mostly Cloudy 7000 ft
Overcast 9500 ft
Dew Point 67 °F
Humidity 100%
Rainfall 0.77 in
Snow Depth Not available.
UV 2 out of 12
Pollen 9.20 out of 12
Air Quality Not available.
Flu Activity Not available.
SPECI KPHD 041539Z AUTO 00000KT 2SM -RA BR BKN050 BKN070 OVC095 20/19 A3012 RMK AO2 TSB24E39 T02000194 PNO

10-Day Weather Forecast

×

Almanac

Astronomy

Sep. 04, 2015 Rise Set
Actual Time
Civil Twilight
Nautical Twilight
Astronomical Twilight
Moon
Length of Visible Light
Length of Day
Tomorrow will be .
, % of the Moon is Illuminated

Today's Extremes

State Highs State Lows

Community

WunderPhotos

Upload Photos

1,852,197 photos uploaded!

WunderBlogs® & News

Nearby

Air Quality

  Air Quality AQ Index Pollutant
Not available.

Snow Depth

Station Depth Elevation

Earthquake Activity

City Distance Mag. Time & Date
Minimum magnitude displayed is 2.5.

Coastal Water Temperatures

Place Temperature

Stations

Nearby Weather Stations

Station Location Temp. Windchill Dew Point Humidity Wind Precip. Elev Updated Type